sensor_id;sensor_type;location;lat;lon;timestamp;temperature;humidity
6654;DHT22;3363;50.942;7.034;2023-02-21T00:01:14;8.80;99.40
6654;DHT22;3363;50.942;7.034;2023-02-21T00:03:58;8.80;99.90
6654;DHT22;3363;50.942;7.034;2023-02-21T00:06:42;8.80;99.90
6654;DHT22;3363;50.942;7.034;2023-02-21T00:09:26;8.80;99.80
6654;DHT22;3363;50.942;7.034;2023-02-21T00:12:10;8.80;99.40
6654;DHT22;3363;50.942;7.034;2023-02-21T00:14:56;8.80;99.50
6654;DHT22;3363;50.942;7.034;2023-02-21T00:17:41;8.80;99.70
6654;DHT22;3363;50.942;7.034;2023-02-21T00:20:25;8.80;99.90
6654;DHT22;3363;50.942;7.034;2023-02-21T00:23:09;8.70;99.90
6654;DHT22;3363;50.942;7.034;2023-02-21T00:25:53;8.70;99.90
6654;DHT22;3363;50.942;7.034;2023-02-21T00:28:37;8.80;99.90
6654;DHT22;3363;50.942;7.034;2023-02-21T00:31:23;8.80;99.90
6654;DHT22;3363;50.942;7.034;2023-02-21T00:34:07;8.80;99.90
6654;DHT22;3363;50.942;7.034;2023-02-21T00:36:51;8.70;99.90
6654;DHT22;3363;50.942;7.034;2023-02-21T00:39:36;8.70;99.90
6654;DHT22;3363;50.942;7.034;2023-02-21T00:42:20;8.80;99.90
6654;DHT22;3363;50.942;7.034;2023-02-21T00:45:04;8.80;99.90
6654;DHT22;3363;50.942;7.034;2023-02-21T00:47:50;8.80;99.90
6654;DHT22;3363;50.942;7.034;2023-02-21T00:50:34;8.80;99.90
6654;DHT22;3363;50.942;7.034;2023-02-21T00:53:18;8.70;99.90
6654;DHT22;3363;50.942;7.034;2023-02-21T00:56:03;8.80;99.90
6654;DHT22;3363;50.942;7.034;2023-02-21T00:58:47;8.80;99.90
6654;DHT22;3363;50.942;7.034;2023-02-21T01:01:31;8.70;99.90
6654;DHT22;3363;50.942;7.034;2023-02-21T01:04:17;8.70;99.90
6654;DHT22;3363;50.942;7.034;2023-02-21T01:07:01;8.70;99.90
6654;DHT22;3363;50.942;7.034;2023-02-21T01:09:45;8.70;99.90
6654;DHT22;3363;50.942;7.034;2023-02-21T01:12:30;8.80;99.90
6654;DHT22;3363;50.942;7.034;2023-02-21T01:15:14;8.80;99.90
6654;DHT22;3363;50.942;7.034;2023-02-21T01:17:58;8.70;99.90
6654;DHT22;3363;50.942;7.034;2023-02-21T01:20:44;8.70;99.90
6654;DHT22;3363;50.942;7.034;2023-02-21T01:23:28;8.80;99.90
6654;DHT22;3363;50.942;7.034;2023-02-21T01:26:12;8.70;99.90
6654;DHT22;3363;50.942;7.034;2023-02-21T01:28:56;8.70;99.90
6654;DHT22;3363;50.942;7.034;2023-02-21T01:31:41;8.70;99.90
6654;DHT22;3363;50.942;7.034;2023-02-21T01:34:25;8.70;99.90
6654;DHT22;3363;50.942;7.034;2023-02-21T01:37:10;8.70;99.90
6654;DHT22;3363;50.942;7.034;2023-02-21T01:39:55;8.80;99.90
6654;DHT22;3363;50.942;7.034;2023-02-21T01:42:39;8.70;99.90
6654;DHT22;3363;50.942;7.034;2023-02-21T01:45:41;8.80;99.90
6654;DHT22;3363;50.942;7.034;2023-02-21T01:48:26;8.80;99.90
6654;DHT22;3363;50.942;7.034;2023-02-21T01:51:12;8.70;99.90
6654;DHT22;3363;50.942;7.034;2023-02-21T01:53:58;8.70;99.90
6654;DHT22;3363;50.942;7.034;2023-02-21T01:56:43;8.80;99.90
6654;DHT22;3363;50.942;7.034;2023-02-21T01:59:27;8.80;99.90
6654;DHT22;3363;50.942;7.034;2023-02-21T02:02:13;8.80;99.90
6654;DHT22;3363;50.942;7.034;2023-02-21T02:04:59;8.80;99.90
6654;DHT22;3363;50.942;7.034;2023-02-21T02:07:44;8.80;99.90
6654;DHT22;3363;50.942;7.034;2023-02-21T02:10:29;8.80;99.90
6654;DHT22;3363;50.942;7.034;2023-02-21T02:13:24;8.80;99.90
6654;DHT22;3363;50.942;7.034;2023-02-21T02:15:56;8.80;99.90
6654;DHT22;3363;50.942;7.034;2023-02-21T02:18:32;8.80;99.90
6654;DHT22;3363;50.942;7.034;2023-02-21T02:21:13;8.80;99.90
6654;DHT22;3363;50.942;7.034;2023-02-21T02:23:54;8.80;99.90
6654;DHT22;3363;50.942;7.034;2023-02-21T02:29:14;8.80;99.90
6654;DHT22;3363;50.942;7.034;2023-02-21T02:37:20;8.80;99.90
6654;DHT22;3363;50.942;7.034;2023-02-21T02:39:50;8.80;99.90
6654;DHT22;3363;50.942;7.034;2023-02-21T02:42:24;8.80;99.90
6654;DHT22;3363;50.942;7.034;2023-02-21T02:44:52;8.80;99.90
6654;DHT22;3363;50.942;7.034;2023-02-21T02:47:23;8.80;99.90
6654;DHT22;3363;50.942;7.034;2023-02-21T02:49:50;8.80;99.90
6654;DHT22;3363;50.942;7.034;2023-02-21T02:52:17;8.80;99.90
6654;DHT22;3363;50.942;7.034;2023-02-21T02:54:54;8.70;99.90
6654;DHT22;3363;50.942;7.034;2023-02-21T02:57:22;8.70;99.90
6654;DHT22;3363;50.942;7.034;2023-02-21T02:59:49;8.80;99.90
6654;DHT22;3363;50.942;7.034;2023-02-21T03:02:23;8.80;99.90
6654;DHT22;3363;50.942;7.034;2023-02-21T03:05:04;8.70;99.90
6654;DHT22;3363;50.942;7.034;2023-02-21T03:07:36;8.70;99.90
6654;DHT22;3363;50.942;7.034;2023-02-21T03:10:09;8.70;99.90
6654;DHT22;3363;50.942;7.034;2023-02-21T03:12:40;8.70;99.90
6654;DHT22;3363;50.942;7.034;2023-02-21T03:15:10;8.70;99.90
6654;DHT22;3363;50.942;7.034;2023-02-21T03:17:38;8.70;99.90
6654;DHT22;3363;50.942;7.034;2023-02-21T03:20:06;8.70;99.90
6654;DHT22;3363;50.942;7.034;2023-02-21T03:22:35;8.70;99.90
6654;DHT22;3363;50.942;7.034;2023-02-21T03:25:02;8.70;99.90
6654;DHT22;3363;50.942;7.034;2023-02-21T03:27:30;8.70;99.90
6654;DHT22;3363;50.942;7.034;2023-02-21T03:29:59;8.70;99.90
6654;DHT22;3363;50.942;7.034;2023-02-21T03:32:28;8.70;99.90
6654;DHT22;3363;50.942;7.034;2023-02-21T03:34:54;8.70;99.90
6654;DHT22;3363;50.942;7.034;2023-02-21T03:37:28;8.70;99.90
6654;DHT22;3363;50.942;7.034;2023-02-21T03:39:55;8.70;99.90
6654;DHT22;3363;50.942;7.034;2023-02-21T03:42:22;8.70;99.90
6654;DHT22;3363;50.942;7.034;2023-02-21T03:44:50;8.70;99.90
6654;DHT22;3363;50.942;7.034;2023-02-21T03:47:17;8.70;99.90
6654;DHT22;3363;50.942;7.034;2023-02-21T03:49:43;8.70;99.90
6654;DHT22;3363;50.942;7.034;2023-02-21T03:52:11;8.70;99.90
6654;DHT22;3363;50.942;7.034;2023-02-21T03:54:38;8.70;99.90
6654;DHT22;3363;50.942;7.034;2023-02-21T03:57:04;8.70;99.90
6654;DHT22;3363;50.942;7.034;2023-02-21T03:59:31;8.70;99.90
6654;DHT22;3363;50.942;7.034;2023-02-21T04:01:59;8.70;99.90
6654;DHT22;3363;50.942;7.034;2023-02-21T04:04:26;8.70;99.90
6654;DHT22;3363;50.942;7.034;2023-02-21T04:06:52;8.70;99.90
6654;DHT22;3363;50.942;7.034;2023-02-21T04:09:19;8.70;99.90
6654;DHT22;3363;50.942;7.034;2023-02-21T04:11:46;8.70;99.90
6654;DHT22;3363;50.942;7.034;2023-02-21T04:14:12;8.80;99.90
6654;DHT22;3363;50.942;7.034;2023-02-21T04:16:39;8.70;99.90
6654;DHT22;3363;50.942;7.034;2023-02-21T04:19:07;8.70;99.90
6654;DHT22;3363;50.942;7.034;2023-02-21T04:21:34;8.70;99.90
6654;DHT22;3363;50.942;7.034;2023-02-21T04:24:01;8.70;99.90
6654;DHT22;3363;50.942;7.034;2023-02-21T04:26:28;8.70;99.90
6654;DHT22;3363;50.942;7.034;2023-02-21T04:28:55;8.70;99.90
6654;DHT22;3363;50.942;7.034;2023-02-21T04:31:21;8.70;99.90
6654;DHT22;3363;50.942;7.034;2023-02-21T04:33:48;8.70;99.90
6654;DHT22;3363;50.942;7.034;2023-02-21T04:36:16;8.70;99.90
6654;DHT22;3363;50.942;7.034;2023-02-21T04:38:43;8.70;99.90
6654;DHT22;3363;50.942;7.034;2023-02-21T04:41:10;8.70;99.90
6654;DHT22;3363;50.942;7.034;2023-02-21T04:43:36;8.80;99.90
6654;DHT22;3363;50.942;7.034;2023-02-21T04:46:03;8.70;99.90
6654;DHT22;3363;50.942;7.034;2023-02-21T04:48:30;8.70;99.90
6654;DHT22;3363;50.942;7.034;2023-02-21T04:50:57;8.70;99.90
6654;DHT22;3363;50.942;7.034;2023-02-21T04:53:25;8.70;99.90
6654;DHT22;3363;50.942;7.034;2023-02-21T04:55:52;8.70;99.90
6654;DHT22;3363;50.942;7.034;2023-02-21T04:58:19;8.70;99.90
6654;DHT22;3363;50.942;7.034;2023-02-21T05:00:45;8.70;99.90
6654;DHT22;3363;50.942;7.034;2023-02-21T05:03:12;8.70;99.90
6654;DHT22;3363;50.942;7.034;2023-02-21T05:05:39;8.70;99.90
6654;DHT22;3363;50.942;7.034;2023-02-21T05:08:05;8.70;99.90
6654;DHT22;3363;50.942;7.034;2023-02-21T05:10:33;8.70;99.90
6654;DHT22;3363;50.942;7.034;2023-02-21T05:13:00;8.70;99.90
6654;DHT22;3363;50.942;7.034;2023-02-21T05:15:26;8.70;99.90
6654;DHT22;3363;50.942;7.034;2023-02-21T05:17:53;8.70;99.90
6654;DHT22;3363;50.942;7.034;2023-02-21T05:20:20;8.70;99.90
6654;DHT22;3363;50.942;7.034;2023-02-21T05:22:47;8.70;99.90
6654;DHT22;3363;50.942;7.034;2023-02-21T05:25:14;8.70;99.90
6654;DHT22;3363;50.942;7.034;2023-02-21T05:27:43;8.70;99.90
6654;DHT22;3363;50.942;7.034;2023-02-21T05:30:11;8.70;99.90
6654;DHT22;3363;50.942;7.034;2023-02-21T05:32:37;8.70;99.90
6654;DHT22;3363;50.942;7.034;2023-02-21T05:35:04;8.60;99.90
6654;DHT22;3363;50.942;7.034;2023-02-21T05:37:31;8.70;99.90
6654;DHT22;3363;50.942;7.034;2023-02-21T05:39:58;8.70;99.90
6654;DHT22;3363;50.942;7.034;2023-02-21T05:42:25;8.70;99.90
6654;DHT22;3363;50.942;7.034;2023-02-21T05:44:53;8.70;99.90
6654;DHT22;3363;50.942;7.034;2023-02-21T05:47:20;8.70;99.90
6654;DHT22;3363;50.942;7.034;2023-02-21T05:49:46;8.70;99.90
6654;DHT22;3363;50.942;7.034;2023-02-21T05:52:13;8.70;99.90
6654;DHT22;3363;50.942;7.034;2023-02-21T05:54:40;8.70;99.90
6654;DHT22;3363;50.942;7.034;2023-02-21T05:57:07;8.60;99.90
6654;DHT22;3363;50.942;7.034;2023-02-21T05:59:34;8.60;99.90
6654;DHT22;3363;50.942;7.034;2023-02-21T06:02:02;8.60;99.90
6654;DHT22;3363;50.942;7.034;2023-02-21T06:04:29;8.60;99.90
6654;DHT22;3363;50.942;7.034;2023-02-21T06:06:55;8.60;99.90
6654;DHT22;3363;50.942;7.034;2023-02-21T06:09:22;8.60;99.90
6654;DHT22;3363;50.942;7.034;2023-02-21T06:11:49;8.70;99.90
6654;DHT22;3363;50.942;7.034;2023-02-21T06:14:16;8.70;99.90
6654;DHT22;3363;50.942;7.034;2023-02-21T06:16:43;8.70;99.90
6654;DHT22;3363;50.942;7.034;2023-02-21T06:19:12;8.70;99.90
6654;DHT22;3363;50.942;7.034;2023-02-21T06:21:40;8.70;99.90
6654;DHT22;3363;50.942;7.034;2023-02-21T06:24:07;8.70;99.90
6654;DHT22;3363;50.942;7.034;2023-02-21T06:26:34;8.70;99.90
6654;DHT22;3363;50.942;7.034;2023-02-21T06:29:01;8.70;99.90
6654;DHT22;3363;50.942;7.034;2023-02-21T06:31:28;8.70;99.90
6654;DHT22;3363;50.942;7.034;2023-02-21T06:33:55;8.70;99.90
6654;DHT22;3363;50.942;7.034;2023-02-21T06:36:24;8.70;99.90
6654;DHT22;3363;50.942;7.034;2023-02-21T06:38:51;8.70;99.90
6654;DHT22;3363;50.942;7.034;2023-02-21T06:41:20;8.70;99.90
6654;DHT22;3363;50.942;7.034;2023-02-21T06:43:48;8.70;99.90
6654;DHT22;3363;50.942;7.034;2023-02-21T06:46:16;8.70;99.90
6654;DHT22;3363;50.942;7.034;2023-02-21T06:48:43;8.70;99.90
6654;DHT22;3363;50.942;7.034;2023-02-21T06:51:09;8.70;99.90
6654;DHT22;3363;50.942;7.034;2023-02-21T06:53:40;8.70;99.90
6654;DHT22;3363;50.942;7.034;2023-02-21T06:56:07;8.60;99.90
6654;DHT22;3363;50.942;7.034;2023-02-21T06:58:33;8.70;99.90
6654;DHT22;3363;50.942;7.034;2023-02-21T07:01:00;8.60;99.90
6654;DHT22;3363;50.942;7.034;2023-02-21T07:03:27;8.70;99.90
6654;DHT22;3363;50.942;7.034;2023-02-21T07:05:54;8.60;99.90
6654;DHT22;3363;50.942;7.034;2023-02-21T07:08:20;8.70;99.90
6654;DHT22;3363;50.942;7.034;2023-02-21T07:10:48;8.70;99.90
6654;DHT22;3363;50.942;7.034;2023-02-21T07:13:15;8.60;99.90
6654;DHT22;3363;50.942;7.034;2023-02-21T07:15:42;8.60;99.90
6654;DHT22;3363;50.942;7.034;2023-02-21T07:18:08;8.70;99.90
6654;DHT22;3363;50.942;7.034;2023-02-21T07:20:35;8.70;99.90
6654;DHT22;3363;50.942;7.034;2023-02-21T07:23:02;8.60;99.90
6654;DHT22;3363;50.942;7.034;2023-02-21T07:25:28;8.70;99.90
6654;DHT22;3363;50.942;7.034;2023-02-21T07:27:56;8.70;99.90
6654;DHT22;3363;50.942;7.034;2023-02-21T07:30:23;8.60;99.90
6654;DHT22;3363;50.942;7.034;2023-02-21T07:32:50;8.70;99.90
6654;DHT22;3363;50.942;7.034;2023-02-21T07:35:17;8.70;99.90
6654;DHT22;3363;50.942;7.034;2023-02-21T07:37:43;8.70;99.90
6654;DHT22;3363;50.942;7.034;2023-02-21T07:40:10;8.70;99.90
6654;DHT22;3363;50.942;7.034;2023-02-21T07:42:39;8.70;99.90
6654;DHT22;3363;50.942;7.034;2023-02-21T07:45:09;8.70;99.90
6654;DHT22;3363;50.942;7.034;2023-02-21T07:47:36;8.70;99.90
6654;DHT22;3363;50.942;7.034;2023-02-21T07:50:03;8.70;99.90
6654;DHT22;3363;50.942;7.034;2023-02-21T07:52:30;8.70;99.90
6654;DHT22;3363;50.942;7.034;2023-02-21T07:54:57;8.70;99.90
6654;DHT22;3363;50.942;7.034;2023-02-21T07:57:23;8.70;99.90
6654;DHT22;3363;50.942;7.034;2023-02-21T07:59:50;8.70;99.90
6654;DHT22;3363;50.942;7.034;2023-02-21T08:02:18;8.70;99.90
6654;DHT22;3363;50.942;7.034;2023-02-21T08:04:48;8.80;99.90
6654;DHT22;3363;50.942;7.034;2023-02-21T08:07:15;8.70;99.90
6654;DHT22;3363;50.942;7.034;2023-02-21T08:09:41;8.80;99.90
6654;DHT22;3363;50.942;7.034;2023-02-21T08:12:08;8.80;99.90
6654;DHT22;3363;50.942;7.034;2023-02-21T08:14:35;8.80;99.90
6654;DHT22;3363;50.942;7.034;2023-02-21T08:17:01;8.80;99.90
6654;DHT22;3363;50.942;7.034;2023-02-21T08:19:29;8.80;99.90
6654;DHT22;3363;50.942;7.034;2023-02-21T08:21:56;8.80;99.90
6654;DHT22;3363;50.942;7.034;2023-02-21T08:24:23;8.80;99.90
6654;DHT22;3363;50.942;7.034;2023-02-21T08:26:49;8.80;99.90
6654;DHT22;3363;50.942;7.034;2023-02-21T08:29:16;8.80;99.90
6654;DHT22;3363;50.942;7.034;2023-02-21T08:31:43;8.80;99.90
6654;DHT22;3363;50.942;7.034;2023-02-21T08:34:10;8.80;99.90
6654;DHT22;3363;50.942;7.034;2023-02-21T08:36:38;8.80;99.90
6654;DHT22;3363;50.942;7.034;2023-02-21T08:39:05;8.80;99.90
6654;DHT22;3363;50.942;7.034;2023-02-21T08:41:35;8.80;99.90
6654;DHT22;3363;50.942;7.034;2023-02-21T08:44:03;8.80;99.90
6654;DHT22;3363;50.942;7.034;2023-02-21T08:46:29;8.80;99.90
6654;DHT22;3363;50.942;7.034;2023-02-21T08:48:56;8.80;99.90
6654;DHT22;3363;50.942;7.034;2023-02-21T08:51:23;8.80;99.90
6654;DHT22;3363;50.942;7.034;2023-02-21T08:53:51;8.90;99.90
6654;DHT22;3363;50.942;7.034;2023-02-21T08:56:18;8.90;99.90
6654;DHT22;3363;50.942;7.034;2023-02-21T08:58:45;8.80;99.90
6654;DHT22;3363;50.942;7.034;2023-02-21T09:01:11;8.80;99.90
6654;DHT22;3363;50.942;7.034;2023-02-21T09:03:38;8.90;99.90
6654;DHT22;3363;50.942;7.034;2023-02-21T09:06:05;8.90;99.90
6654;DHT22;3363;50.942;7.034;2023-02-21T09:08:31;8.90;99.90
6654;DHT22;3363;50.942;7.034;2023-02-21T09:11:00;8.90;99.90
6654;DHT22;3363;50.942;7.034;2023-02-21T09:13:26;8.90;99.90
6654;DHT22;3363;50.942;7.034;2023-02-21T09:15:53;8.90;99.90
6654;DHT22;3363;50.942;7.034;2023-02-21T09:18:20;8.80;99.90
6654;DHT22;3363;50.942;7.034;2023-02-21T09:20:47;8.90;99.90
6654;DHT22;3363;50.942;7.034;2023-02-21T09:23:16;8.80;99.90
6654;DHT22;3363;50.942;7.034;2023-02-21T09:25:44;8.80;99.90
6654;DHT22;3363;50.942;7.034;2023-02-21T09:28:12;8.90;99.90
6654;DHT22;3363;50.942;7.034;2023-02-21T09:30:39;8.90;99.90
6654;DHT22;3363;50.942;7.034;2023-02-21T09:33:05;8.90;99.90
6654;DHT22;3363;50.942;7.034;2023-02-21T09:35:32;8.90;99.90
6654;DHT22;3363;50.942;7.034;2023-02-21T09:37:59;8.90;99.90
6654;DHT22;3363;50.942;7.034;2023-02-21T09:40:28;8.90;99.90
6654;DHT22;3363;50.942;7.034;2023-02-21T09:42:58;8.90;99.90
6654;DHT22;3363;50.942;7.034;2023-02-21T09:45:26;8.90;99.90
6654;DHT22;3363;50.942;7.034;2023-02-21T09:47:55;8.90;99.90
6654;DHT22;3363;50.942;7.034;2023-02-21T09:50:25;8.90;99.90
6654;DHT22;3363;50.942;7.034;2023-02-21T09:52:55;9.00;99.90
6654;DHT22;3363;50.942;7.034;2023-02-21T09:55:25;9.00;99.90
6654;DHT22;3363;50.942;7.034;2023-02-21T09:57:52;9.00;99.90
6654;DHT22;3363;50.942;7.034;2023-02-21T10:00:20;9.00;99.90
6654;DHT22;3363;50.942;7.034;2023-02-21T10:02:53;8.90;99.90
6654;DHT22;3363;50.942;7.034;2023-02-21T10:05:24;8.90;99.90
6654;DHT22;3363;50.942;7.034;2023-02-21T10:07:57;9.00;99.90
6654;DHT22;3363;50.942;7.034;2023-02-21T10:10:26;9.00;99.90
6654;DHT22;3363;50.942;7.034;2023-02-21T10:12:55;9.00;99.90
6654;DHT22;3363;50.942;7.034;2023-02-21T10:15:35;9.00;99.90
6654;DHT22;3363;50.942;7.034;2023-02-21T10:18:05;9.00;99.90
6654;DHT22;3363;50.942;7.034;2023-02-21T10:20:34;9.00;99.90
6654;DHT22;3363;50.942;7.034;2023-02-21T10:23:04;8.90;99.90
6654;DHT22;3363;50.942;7.034;2023-02-21T10:25:37;9.00;99.90
6654;DHT22;3363;50.942;7.034;2023-02-21T10:28:07;9.00;99.90
6654;DHT22;3363;50.942;7.034;2023-02-21T10:30:40;9.00;99.90
6654;DHT22;3363;50.942;7.034;2023-02-21T10:33:09;9.00;99.90
6654;DHT22;3363;50.942;7.034;2023-02-21T10:35:36;9.00;99.90
6654;DHT22;3363;50.942;7.034;2023-02-21T10:38:04;9.00;99.90
6654;DHT22;3363;50.942;7.034;2023-02-21T10:40:33;9.10;99.90
6654;DHT22;3363;50.942;7.034;2023-02-21T10:43:02;9.10;99.90
6654;DHT22;3363;50.942;7.034;2023-02-21T10:45:33;9.10;99.90
6654;DHT22;3363;50.942;7.034;2023-02-21T10:48:00;9.20;99.90
6654;DHT22;3363;50.942;7.034;2023-02-21T10:50:39;9.20;99.90
6654;DHT22;3363;50.942;7.034;2023-02-21T10:53:07;9.20;99.90
6654;DHT22;3363;50.942;7.034;2023-02-21T10:55:33;9.20;99.90
6654;DHT22;3363;50.942;7.034;2023-02-21T10:58:05;9.20;99.90
6654;DHT22;3363;50.942;7.034;2023-02-21T11:00:32;9.20;99.90
6654;DHT22;3363;50.942;7.034;2023-02-21T11:03:02;9.20;99.90
6654;DHT22;3363;50.942;7.034;2023-02-21T11:05:29;9.30;99.90
6654;DHT22;3363;50.942;7.034;2023-02-21T11:07:58;9.30;99.90
6654;DHT22;3363;50.942;7.034;2023-02-21T11:10:28;9.30;99.90
6654;DHT22;3363;50.942;7.034;2023-02-21T11:13:05;9.30;99.90
6654;DHT22;3363;50.942;7.034;2023-02-21T11:15:32;9.30;99.90
6654;DHT22;3363;50.942;7.034;2023-02-21T11:20:41;9.30;99.90
6654;DHT22;3363;50.942;7.034;2023-02-21T11:23:22;9.40;99.90
6654;DHT22;3363;50.942;7.034;2023-02-21T11:25:50;9.40;99.90
6654;DHT22;3363;50.942;7.034;2023-02-21T11:28:19;9.40;99.90
6654;DHT22;3363;50.942;7.034;2023-02-21T11:30:48;9.40;99.90
6654;DHT22;3363;50.942;7.034;2023-02-21T11:33:17;9.40;99.90
6654;DHT22;3363;50.942;7.034;2023-02-21T11:35:45;9.40;99.90
6654;DHT22;3363;50.942;7.034;2023-02-21T11:40:55;9.50;99.90
6654;DHT22;3363;50.942;7.034;2023-02-21T11:43:23;9.40;99.90
6654;DHT22;3363;50.942;7.034;2023-02-21T11:46:02;9.40;99.90
6654;DHT22;3363;50.942;7.034;2023-02-21T11:48:31;9.40;99.90
6654;DHT22;3363;50.942;7.034;2023-02-21T11:50:59;9.50;99.90
6654;DHT22;3363;50.942;7.034;2023-02-21T11:53:30;9.60;99.90
6654;DHT22;3363;50.942;7.034;2023-02-21T11:56:02;9.60;99.90
6654;DHT22;3363;50.942;7.034;2023-02-21T11:58:33;9.60;99.90
6654;DHT22;3363;50.942;7.034;2023-02-21T12:01:05;9.60;99.90
6654;DHT22;3363;50.942;7.034;2023-02-21T12:03:36;9.60;99.90
6654;DHT22;3363;50.942;7.034;2023-02-21T12:06:08;9.60;99.90
6654;DHT22;3363;50.942;7.034;2023-02-21T12:08:38;9.60;99.90
6654;DHT22;3363;50.942;7.034;2023-02-21T12:11:11;9.60;99.90
6654;DHT22;3363;50.942;7.034;2023-02-21T12:13:41;9.70;99.90
6654;DHT22;3363;50.942;7.034;2023-02-21T12:16:10;9.80;99.90
6654;DHT22;3363;50.942;7.034;2023-02-21T12:18:47;9.80;99.90
6654;DHT22;3363;50.942;7.034;2023-02-21T12:21:22;9.80;99.90
6654;DHT22;3363;50.942;7.034;2023-02-21T12:23:53;9.80;99.90
6654;DHT22;3363;50.942;7.034;2023-02-21T12:26:26;9.80;99.90
6654;DHT22;3363;50.942;7.034;2023-02-21T12:28:59;9.90;99.90
6654;DHT22;3363;50.942;7.034;2023-02-21T12:31:32;9.90;98.60
6654;DHT22;3363;50.942;7.034;2023-02-21T12:34:06;10.00;98.30
6654;DHT22;3363;50.942;7.034;2023-02-21T12:36:42;10.00;97.10
6654;DHT22;3363;50.942;7.034;2023-02-21T12:39:15;10.10;97.40
6654;DHT22;3363;50.942;7.034;2023-02-21T12:41:59;10.10;98.30
6654;DHT22;3363;50.942;7.034;2023-02-21T12:44:30;10.20;98.60
6654;DHT22;3363;50.942;7.034;2023-02-21T12:46:59;10.40;99.00
6654;DHT22;3363;50.942;7.034;2023-02-21T12:49:28;10.40;97.70
6654;DHT22;3363;50.942;7.034;2023-02-21T12:51:57;10.20;95.10
6654;DHT22;3363;50.942;7.034;2023-02-21T12:54:29;10.20;95.30
6654;DHT22;3363;50.942;7.034;2023-02-21T12:57:00;10.20;98.30
6654;DHT22;3363;50.942;7.034;2023-02-21T12:59:29;10.30;98.40
6654;DHT22;3363;50.942;7.034;2023-02-21T13:01:57;10.30;96.80
6654;DHT22;3363;50.942;7.034;2023-02-21T13:04:29;10.40;98.80
6654;DHT22;3363;50.942;7.034;2023-02-21T13:06:58;10.40;96.00
6654;DHT22;3363;50.942;7.034;2023-02-21T13:09:29;10.40;95.50
6654;DHT22;3363;50.942;7.034;2023-02-21T13:12:02;10.40;95.30
6654;DHT22;3363;50.942;7.034;2023-02-21T13:14:30;10.40;96.00
6654;DHT22;3363;50.942;7.034;2023-02-21T13:16:58;10.40;95.60
6654;DHT22;3363;50.942;7.034;2023-02-21T13:19:25;10.40;95.30
6654;DHT22;3363;50.942;7.034;2023-02-21T13:22:02;10.40;95.10
6654;DHT22;3363;50.942;7.034;2023-02-21T13:24:47;10.40;95.70
6654;DHT22;3363;50.942;7.034;2023-02-21T13:27:25;10.40;95.30
6654;DHT22;3363;50.942;7.034;2023-02-21T13:29:58;10.50;95.40
6654;DHT22;3363;50.942;7.034;2023-02-21T13:32:26;10.50;95.30
6654;DHT22;3363;50.942;7.034;2023-02-21T13:34:53;10.50;95.90
6654;DHT22;3363;50.942;7.034;2023-02-21T13:37:21;10.50;95.10
6654;DHT22;3363;50.942;7.034;2023-02-21T13:39:49;10.60;94.80
6654;DHT22;3363;50.942;7.034;2023-02-21T13:42:17;10.50;94.40
6654;DHT22;3363;50.942;7.034;2023-02-21T13:44:46;10.60;97.90
6654;DHT22;3363;50.942;7.034;2023-02-21T13:47:14;10.60;96.50
6654;DHT22;3363;50.942;7.034;2023-02-21T13:49:42;10.60;95.00
6654;DHT22;3363;50.942;7.034;2023-02-21T13:57:51;10.60;94.10
6654;DHT22;3363;50.942;7.034;2023-02-21T14:00:51;10.50;93.60
6654;DHT22;3363;50.942;7.034;2023-02-21T14:03:29;10.60;94.20
6654;DHT22;3363;50.942;7.034;2023-02-21T14:06:20;10.60;94.10
6654;DHT22;3363;50.942;7.034;2023-02-21T14:08:49;10.60;94.80
6654;DHT22;3363;50.942;7.034;2023-02-21T14:11:21;10.70;93.70
6654;DHT22;3363;50.942;7.034;2023-02-21T14:13:49;10.70;94.30
6654;DHT22;3363;50.942;7.034;2023-02-21T14:16:19;10.70;93.40
6654;DHT22;3363;50.942;7.034;2023-02-21T14:18:50;10.70;93.20
6654;DHT22;3363;50.942;7.034;2023-02-21T14:21:21;10.80;92.60
6654;DHT22;3363;50.942;7.034;2023-02-21T14:23:49;10.80;92.90
6654;DHT22;3363;50.942;7.034;2023-02-21T14:26:36;10.80;94.30
6654;DHT22;3363;50.942;7.034;2023-02-21T14:31:56;10.80;92.90
6654;DHT22;3363;50.942;7.034;2023-02-21T14:34:25;10.90;92.40
6654;DHT22;3363;50.942;7.034;2023-02-21T14:36:53;10.90;92.60
6654;DHT22;3363;50.942;7.034;2023-02-21T14:39:22;10.80;91.70
6654;DHT22;3363;50.942;7.034;2023-02-21T14:41:52;10.80;91.50
6654;DHT22;3363;50.942;7.034;2023-02-21T14:44:23;10.80;91.70
6654;DHT22;3363;50.942;7.034;2023-02-21T14:47:04;10.80;92.50
6654;DHT22;3363;50.942;7.034;2023-02-21T14:49:39;10.80;92.10
6654;DHT22;3363;50.942;7.034;2023-02-21T14:52:17;10.80;92.10
6654;DHT22;3363;50.942;7.034;2023-02-21T14:54:52;10.80;91.80
6654;DHT22;3363;50.942;7.034;2023-02-21T15:00:13;10.70;92.10
6654;DHT22;3363;50.942;7.034;2023-02-21T15:02:46;10.70;92.40
6654;DHT22;3363;50.942;7.034;2023-02-21T15:05:17;10.70;91.80
6654;DHT22;3363;50.942;7.034;2023-02-21T15:07:50;10.70;91.90
6654;DHT22;3363;50.942;7.034;2023-02-21T15:10:20;10.70;92.10
6654;DHT22;3363;50.942;7.034;2023-02-21T15:12:48;10.60;92.10
6654;DHT22;3363;50.942;7.034;2023-02-21T15:15:17;10.60;92.10
6654;DHT22;3363;50.942;7.034;2023-02-21T15:17:45;10.60;92.10
6654;DHT22;3363;50.942;7.034;2023-02-21T15:20:20;10.60;92.80
6654;DHT22;3363;50.942;7.034;2023-02-21T15:22:53;10.60;93.00
6654;DHT22;3363;50.942;7.034;2023-02-21T15:25:20;10.60;94.60
6654;DHT22;3363;50.942;7.034;2023-02-21T15:28:03;10.60;93.80
6654;DHT22;3363;50.942;7.034;2023-02-21T15:30:32;10.60;93.90
6654;DHT22;3363;50.942;7.034;2023-02-21T15:33:02;10.50;93.80
6654;DHT22;3363;50.942;7.034;2023-02-21T15:35:31;10.50;94.20
6654;DHT22;3363;50.942;7.034;2023-02-21T15:37:59;10.50;94.20
6654;DHT22;3363;50.942;7.034;2023-02-21T15:40:27;10.50;94.40
6654;DHT22;3363;50.942;7.034;2023-02-21T15:42:54;10.50;94.50
6654;DHT22;3363;50.942;7.034;2023-02-21T15:45:22;10.50;94.60
6654;DHT22;3363;50.942;7.034;2023-02-21T15:47:51;10.40;94.60
6654;DHT22;3363;50.942;7.034;2023-02-21T15:50:22;10.40;94.60
6654;DHT22;3363;50.942;7.034;2023-02-21T15:52:51;10.40;94.30
6654;DHT22;3363;50.942;7.034;2023-02-21T15:55:28;10.40;94.30
6654;DHT22;3363;50.942;7.034;2023-02-21T15:57:59;10.40;94.60
6654;DHT22;3363;50.942;7.034;2023-02-21T16:00:26;10.40;95.00
6654;DHT22;3363;50.942;7.034;2023-02-21T16:05:36;10.40;95.10
6654;DHT22;3363;50.942;7.034;2023-02-21T16:08:03;10.30;95.00
6654;DHT22;3363;50.942;7.034;2023-02-21T16:10:30;10.30;95.20
6654;DHT22;3363;50.942;7.034;2023-02-21T16:12:58;10.30;95.20
6654;DHT22;3363;50.942;7.034;2023-02-21T16:15:26;10.30;95.50
6654;DHT22;3363;50.942;7.034;2023-02-21T16:17:54;10.20;95.40
6654;DHT22;3363;50.942;7.034;2023-02-21T16:20:22;10.20;95.10
6654;DHT22;3363;50.942;7.034;2023-02-21T16:23:10;10.20;95.80
6654;DHT22;3363;50.942;7.034;2023-02-21T16:28:19;10.10;96.20
6654;DHT22;3363;50.942;7.034;2023-02-21T16:30:45;10.10;96.70
6654;DHT22;3363;50.942;7.034;2023-02-21T16:33:12;10.10;96.60
6654;DHT22;3363;50.942;7.034;2023-02-21T16:35:39;10.10;96.60
6654;DHT22;3363;50.942;7.034;2023-02-21T16:38:10;10.00;96.70
6654;DHT22;3363;50.942;7.034;2023-02-21T16:40:38;10.00;97.00
6654;DHT22;3363;50.942;7.034;2023-02-21T16:43:05;10.00;97.00
6654;DHT22;3363;50.942;7.034;2023-02-21T16:45:32;9.90;96.80
6654;DHT22;3363;50.942;7.034;2023-02-21T16:48:00;9.90;97.80
6654;DHT22;3363;50.942;7.034;2023-02-21T16:50:28;9.90;98.60
6654;DHT22;3363;50.942;7.034;2023-02-21T16:52:56;9.90;97.30
6654;DHT22;3363;50.942;7.034;2023-02-21T16:55:24;9.80;96.50
6654;DHT22;3363;50.942;7.034;2023-02-21T16:57:52;9.80;97.40
6654;DHT22;3363;50.942;7.034;2023-02-21T17:00:20;9.70;98.40
6654;DHT22;3363;50.942;7.034;2023-02-21T17:02:47;9.80;98.30
6654;DHT22;3363;50.942;7.034;2023-02-21T17:05:13;9.80;98.60
6654;DHT22;3363;50.942;7.034;2023-02-21T17:07:40;9.70;97.20
6654;DHT22;3363;50.942;7.034;2023-02-21T17:10:07;9.70;97.60